S-RH(METAR)
04/24 09:00
METAR S-RH 240000Z 18003KT 7000 -RA SCT008 BKN045 OVC080 20/19 Q1008
RMK 3ST008 7SC045 8AS080 A2977=
戻る
トップページへ戻る
IMOC Co,.Ltd.